CDT,Max TemperatureF,Mean TemperatureF,Min TemperatureF,Max Dew PointF,MeanDew PointF,Min DewpointF,Max Humidity, Mean Humidity, Min Humidity, Max Sea Level PressureIn, Mean Sea Level PressureIn, Min Sea Level PressureIn, Max VisibilityMiles, Mean VisibilityMiles, Min VisibilityMiles, Max Wind SpeedMPH, Mean Wind SpeedMPH, Max Gust SpeedMPH,PrecipitationIn, CloudCover, Events, WindDirDegrees
2013-3-1,55,42,30,34,30,26,96,63,33,30.18,30.12,30.07,10,10,10,16,5,24,0.00,0,,329
2013-3-2,42,35,28,28,25,22,92,69,45,30.26,30.21,30.16,10,10,9,14,4,22,0.00,4,,338
2013-3-3,55,40,24,31,23,17,88,57,23,30.29,30.20,30.12,10,10,10,10,2,,0.00,0,,313
2013-3-4,70,52,35,55,44,31,89,68,44,30.11,30.00,29.91,10,10,10,22,9,29,0.00,3,,176
2013-3-5,70,59,46,60,48,28,90,64,31,30.21,30.04,29.90,10,10,10,18,11,26,0.01,3,,283
2013-3-6,60,48,37,30,25,21,65,44,23,30.33,30.27,30.22,10,10,10,14,9,21,0.00,0,,341
2013-3-7,62,48,35,37,32,29,89,59,29,30.37,30.28,30.24,10,10,8,7,3,,0.00,0,,57
2013-3-8,70,53,36,43,36,30,93,58,23,30.31,30.24,30.18,10,9,7,6,1,,0.00,0,,123
2013-3-9,70,59,48,58,50,43,90,72,53,30.17,30.07,29.96,10,9,4,16,5,23,0.00,1,,149
2013-3-10,73,65,54,64,61,53,97,82,64,29.96,29.90,29.83,10,8,4,25,12,34,0.14,8,Rain,162
2013-3-11,59,50,39,55,44,35,100,83,45,30.04,29.94,29.89,10,8,2,21,10,30,1.52,6,Rain,318
2013-3-12,64,49,34,40,35,31,97,64,29,30.24,30.13,30.04,10,10,9,12,3,16,0.00,0,,348
2013-3-13,64,50,37,36,27,14,89,47,14,30.40,30.33,30.24,10,10,10,17,7,23,0.00,0,,347
2013-3-14,69,51,34,41,31,24,89,56,22,30.45,30.36,30.28,10,10,10,8,1,,0.00,0,,349
2013-3-15,75,57,39,46,39,34,93,53,25,30.29,30.20,30.10,10,10,8,13,5,20,0.00,1,,207
2013-3-16,75,60,46,54,50,45,97,68,40,30.09,30.02,29.93,10,9,4,13,7,23,0.00,1,,201
2013-3-17,78,65,53,63,57,51,100,80,50,29.97,29.90,29.81,10,8,2,15,4,22,0.00,3,Thunderstorm,175
2013-3-18,82,72,62,66,62,58,97,80,49,29.95,29.84,29.73,10,9,5,16,9,22,0.01,5,Rain-Thunderstorm,214
2013-3-19,75,60,48,57,41,32,88,53,23,30.06,30.00,29.95,10,10,10,13,7,20,0.00,2,,39
2013-3-20,68,58,50,38,31,21,50,38,17,30.17,30.09,30.03,10,10,10,17,7,25,0.00,1,,4
2013-3-21,64,52,41,41,31,23,76,48,27,30.07,29.98,29.86,10,10,10,8,2,,0.00,3,,123
2013-3-22,66,58,53,61,53,42,90,78,66,29.88,29.82,29.78,10,10,7,12,6,,0.01,8,Rain,123
2013-3-23,71,66,62,66,64,60,100,96,83,29.84,29.71,29.58,10,3,0,9,4,,0.04,8,Fog-Rain,119
2013-3-24,64,55,42,66,50,27,100,84,28,30.03,29.73,29.59,10,6,0,28,7,36,0.00,5,Fog-Rain,306
2013-3-25,55,44,33,28,22,13,75,48,19,30.28,30.15,30.05,10,10,10,20,12,31,0.00,0,,329
2013-3-26,54,42,30,27,24,19,88,53,27,30.40,30.35,30.28,10,10,10,14,7,26,0.00,0,,337
2013-3-27,62,44,28,33,27,22,89,56,22,30.45,30.36,30.28,10,10,10,7,2,,0.00,0,,59
2013-3-28,71,52,33,41,34,28,96,56,22,30.37,30.30,30.22,10,10,8,6,1,,0.00,0,,172
2013-3-29,75,58,41,52,44,36,93,63,27,30.30,30.24,30.17,10,9,4,16,4,20,0.00,1,,180
2013-3-30,75,62,48,57,52,47,97,75,42,30.19,30.10,30.00,10,9,5,15,3,22,0.05,1,,209
2013-3-31,71,62,53,63,58,53,100,92,68,30.04,29.98,29.84,10,6,0,31,4,53,0.28,6,Fog-Rain-Thunderstorm,210